sensor_id;sensor_type;location;lat;lon;timestamp;P1;durP1;ratioP1;P2;durP2;ratioP2
23175;SDS011;19910;42.652;23.332;2023-04-05T00:02:00;5.97;;;3.28;;
23175;SDS011;19910;42.652;23.332;2023-04-05T00:04:27;15.23;;;5.70;;
23175;SDS011;19910;42.652;23.332;2023-04-05T00:06:58;5.55;;;3.50;;
23175;SDS011;19910;42.652;23.332;2023-04-05T00:09:26;5.97;;;3.03;;
23175;SDS011;19910;42.652;23.332;2023-04-05T00:11:55;9.25;;;5.40;;
23175;SDS011;19910;42.652;23.332;2023-04-05T00:14:21;14.55;;;9.10;;
23175;SDS011;19910;42.652;23.332;2023-04-05T00:16:48;5.22;;;3.13;;
23175;SDS011;19910;42.652;23.332;2023-04-05T00:19:15;6.97;;;3.78;;
23175;SDS011;19910;42.652;23.332;2023-04-05T00:21:42;12.20;;;7.13;;
23175;SDS011;19910;42.652;23.332;2023-04-05T00:24:09;14.43;;;8.80;;
23175;SDS011;19910;42.652;23.332;2023-04-05T00:26:39;15.43;;;8.98;;
23175;SDS011;19910;42.652;23.332;2023-04-05T00:29:09;12.27;;;7.70;;
23175;SDS011;19910;42.652;23.332;2023-04-05T00:31:36;13.30;;;8.00;;
23175;SDS011;19910;42.652;23.332;2023-04-05T00:34:03;15.23;;;9.35;;
23175;SDS011;19910;42.652;23.332;2023-04-05T00:36:33;11.18;;;6.88;;
23175;SDS011;19910;42.652;23.332;2023-04-05T00:39:00;9.43;;;6.00;;
23175;SDS011;19910;42.652;23.332;2023-04-05T00:41:26;10.02;;;6.85;;
23175;SDS011;19910;42.652;23.332;2023-04-05T00:43:53;8.57;;;5.65;;
23175;SDS011;19910;42.652;23.332;2023-04-05T00:46:22;9.73;;;5.63;;
23175;SDS011;19910;42.652;23.332;2023-04-05T00:48:49;3.67;;;2.20;;
23175;SDS011;19910;42.652;23.332;2023-04-05T00:51:15;3.90;;;2.10;;
23175;SDS011;19910;42.652;23.332;2023-04-05T00:53:44;4.38;;;2.70;;
23175;SDS011;19910;42.652;23.332;2023-04-05T00:56:11;3.67;;;1.77;;
23175;SDS011;19910;42.652;23.332;2023-04-05T00:58:40;2.28;;;1.70;;
23175;SDS011;19910;42.652;23.332;2023-04-05T01:01:09;3.95;;;2.42;;
23175;SDS011;19910;42.652;23.332;2023-04-05T01:03:42;2.25;;;1.52;;
23175;SDS011;19910;42.652;23.332;2023-04-05T01:06:19;3.15;;;2.00;;
23175;SDS011;19910;42.652;23.332;2023-04-05T01:08:54;7.10;;;3.05;;
23175;SDS011;19910;42.652;23.332;2023-04-05T01:11:30;2.63;;;1.95;;
23175;SDS011;19910;42.652;23.332;2023-04-05T01:13:59;2.33;;;1.88;;
23175;SDS011;19910;42.652;23.332;2023-04-05T01:16:26;2.35;;;1.67;;
23175;SDS011;19910;42.652;23.332;2023-04-05T01:18:54;1.77;;;1.30;;
23175;SDS011;19910;42.652;23.332;2023-04-05T01:21:38;4.18;;;2.10;;
23175;SDS011;19910;42.652;23.332;2023-04-05T01:24:15;3.17;;;2.08;;
23175;SDS011;19910;42.652;23.332;2023-04-05T01:26:55;2.92;;;2.13;;
23175;SDS011;19910;42.652;23.332;2023-04-05T01:29:30;3.67;;;1.70;;
23175;SDS011;19910;42.652;23.332;2023-04-05T01:32:10;3.95;;;2.53;;
23175;SDS011;19910;42.652;23.332;2023-04-05T01:34:45;4.07;;;2.70;;
23175;SDS011;19910;42.652;23.332;2023-04-05T01:37:17;3.15;;;2.00;;
23175;SDS011;19910;42.652;23.332;2023-04-05T01:39:47;3.47;;;1.88;;
23175;SDS011;19910;42.652;23.332;2023-04-05T01:42:15;2.72;;;2.00;;
23175;SDS011;19910;42.652;23.332;2023-04-05T01:44:50;8.45;;;5.45;;
23175;SDS011;19910;42.652;23.332;2023-04-05T01:47:17;7.15;;;5.43;;
23175;SDS011;19910;42.652;23.332;2023-04-05T01:49:44;6.55;;;4.32;;
23175;SDS011;19910;42.652;23.332;2023-04-05T01:52:11;7.15;;;4.05;;
23175;SDS011;19910;42.652;23.332;2023-04-05T01:54:38;7.72;;;4.88;;
23175;SDS011;19910;42.652;23.332;2023-04-05T01:57:05;4.80;;;2.17;;
23175;SDS011;19910;42.652;23.332;2023-04-05T01:59:31;2.45;;;1.50;;
23175;SDS011;19910;42.652;23.332;2023-04-05T02:02:00;2.53;;;1.70;;
23175;SDS011;19910;42.652;23.332;2023-04-05T02:04:26;1.48;;;1.15;;
23175;SDS011;19910;42.652;23.332;2023-04-05T02:06:53;2.20;;;1.83;;
23175;SDS011;19910;42.652;23.332;2023-04-05T02:09:20;1.48;;;1.05;;
23175;SDS011;19910;42.652;23.332;2023-04-05T02:11:47;2.22;;;1.48;;
23175;SDS011;19910;42.652;23.332;2023-04-05T02:14:13;1.08;;;0.80;;
23175;SDS011;19910;42.652;23.332;2023-04-05T02:16:40;1.90;;;1.33;;
23175;SDS011;19910;42.652;23.332;2023-04-05T02:19:08;3.03;;;2.08;;
23175;SDS011;19910;42.652;23.332;2023-04-05T02:21:35;5.80;;;2.53;;
23175;SDS011;19910;42.652;23.332;2023-04-05T02:24:02;2.85;;;1.42;;
23175;SDS011;19910;42.652;23.332;2023-04-05T02:26:29;3.22;;;2.30;;
23175;SDS011;19910;42.652;23.332;2023-04-05T02:28:55;1.25;;;1.08;;
23175;SDS011;19910;42.652;23.332;2023-04-05T02:31:22;2.28;;;1.50;;
23175;SDS011;19910;42.652;23.332;2023-04-05T02:33:49;2.97;;;2.00;;
23175;SDS011;19910;42.652;23.332;2023-04-05T02:36:18;1.27;;;1.10;;
23175;SDS011;19910;42.652;23.332;2023-04-05T02:38:46;1.95;;;1.73;;
23175;SDS011;19910;42.652;23.332;2023-04-05T02:41:12;2.22;;;1.38;;
23175;SDS011;19910;42.652;23.332;2023-04-05T02:43:39;2.30;;;1.98;;
23175;SDS011;19910;42.652;23.332;2023-04-05T02:46:06;4.05;;;1.75;;
23175;SDS011;19910;42.652;23.332;2023-04-05T02:48:33;3.33;;;2.58;;
23175;SDS011;19910;42.652;23.332;2023-04-05T02:50:59;3.08;;;2.30;;
23175;SDS011;19910;42.652;23.332;2023-04-05T02:53:27;2.65;;;1.80;;
23175;SDS011;19910;42.652;23.332;2023-04-05T02:55:55;2.10;;;1.70;;
23175;SDS011;19910;42.652;23.332;2023-04-05T02:58:24;4.13;;;2.70;;
23175;SDS011;19910;42.652;23.332;2023-04-05T03:00:51;6.35;;;4.30;;
23175;SDS011;19910;42.652;23.332;2023-04-05T03:03:19;5.63;;;2.25;;
23175;SDS011;19910;42.652;23.332;2023-04-05T03:05:46;3.42;;;2.20;;
23175;SDS011;19910;42.652;23.332;2023-04-05T03:08:14;2.25;;;1.92;;
23175;SDS011;19910;42.652;23.332;2023-04-05T03:10:45;2.35;;;1.50;;
23175;SDS011;19910;42.652;23.332;2023-04-05T03:13:12;3.03;;;1.98;;
23175;SDS011;19910;42.652;23.332;2023-04-05T03:15:39;3.63;;;2.30;;
23175;SDS011;19910;42.652;23.332;2023-04-05T03:18:06;3.17;;;2.22;;
23175;SDS011;19910;42.652;23.332;2023-04-05T03:20:34;2.53;;;1.77;;
23175;SDS011;19910;42.652;23.332;2023-04-05T03:23:04;2.35;;;2.15;;
23175;SDS011;19910;42.652;23.332;2023-04-05T03:25:32;3.10;;;1.95;;
23175;SDS011;19910;42.652;23.332;2023-04-05T03:28:01;2.38;;;1.98;;
23175;SDS011;19910;42.652;23.332;2023-04-05T03:30:29;2.35;;;1.65;;
23175;SDS011;19910;42.652;23.332;2023-04-05T03:32:56;4.00;;;2.35;;
23175;SDS011;19910;42.652;23.332;2023-04-05T03:35:25;1.63;;;1.52;;
23175;SDS011;19910;42.652;23.332;2023-04-05T03:37:53;1.52;;;1.42;;
23175;SDS011;19910;42.652;23.332;2023-04-05T03:40:20;3.78;;;2.47;;
23175;SDS011;19910;42.652;23.332;2023-04-05T03:42:47;2.88;;;1.98;;
23175;SDS011;19910;42.652;23.332;2023-04-05T03:45:16;3.60;;;1.98;;
23175;SDS011;19910;42.652;23.332;2023-04-05T03:47:43;3.90;;;2.15;;
23175;SDS011;19910;42.652;23.332;2023-04-05T03:50:10;3.60;;;2.00;;
23175;SDS011;19910;42.652;23.332;2023-04-05T03:52:37;8.35;;;5.78;;
23175;SDS011;19910;42.652;23.332;2023-04-05T03:55:04;6.35;;;4.97;;
23175;SDS011;19910;42.652;23.332;2023-04-05T03:57:32;6.43;;;4.75;;
23175;SDS011;19910;42.652;23.332;2023-04-05T03:59:59;7.90;;;5.50;;
23175;SDS011;19910;42.652;23.332;2023-04-05T04:02:27;6.88;;;5.18;;
23175;SDS011;19910;42.652;23.332;2023-04-05T04:04:53;8.68;;;5.78;;
23175;SDS011;19910;42.652;23.332;2023-04-05T04:07:20;9.52;;;6.18;;
23175;SDS011;19910;42.652;23.332;2023-04-05T04:09:47;6.10;;;4.35;;
23175;SDS011;19910;42.652;23.332;2023-04-05T04:12:13;10.15;;;7.18;;
23175;SDS011;19910;42.652;23.332;2023-04-05T04:14:40;8.57;;;6.13;;
23175;SDS011;19910;42.652;23.332;2023-04-05T04:17:07;8.35;;;5.70;;
23175;SDS011;19910;42.652;23.332;2023-04-05T04:19:35;9.45;;;6.72;;
23175;SDS011;19910;42.652;23.332;2023-04-05T04:22:02;8.25;;;5.53;;
23175;SDS011;19910;42.652;23.332;2023-04-05T04:24:28;8.43;;;5.75;;
23175;SDS011;19910;42.652;23.332;2023-04-05T04:26:56;8.90;;;6.35;;
23175;SDS011;19910;42.652;23.332;2023-04-05T04:29:23;8.48;;;5.90;;
23175;SDS011;19910;42.652;23.332;2023-04-05T04:31:55;6.35;;;4.22;;
23175;SDS011;19910;42.652;23.332;2023-04-05T04:34:22;8.82;;;6.32;;
23175;SDS011;19910;42.652;23.332;2023-04-05T04:36:50;3.08;;;2.25;;
23175;SDS011;19910;42.652;23.332;2023-04-05T04:39:25;2.88;;;2.17;;
23175;SDS011;19910;42.652;23.332;2023-04-05T04:41:55;2.35;;;1.88;;
23175;SDS011;19910;42.652;23.332;2023-04-05T04:44:23;2.92;;;2.03;;
23175;SDS011;19910;42.652;23.332;2023-04-05T04:46:55;1.52;;;1.42;;
23175;SDS011;19910;42.652;23.332;2023-04-05T04:49:22;1.40;;;1.20;;
23175;SDS011;19910;42.652;23.332;2023-04-05T04:51:48;5.05;;;2.33;;
23175;SDS011;19910;42.652;23.332;2023-04-05T04:54:17;2.45;;;1.80;;
23175;SDS011;19910;42.652;23.332;2023-04-05T04:56:46;2.03;;;1.40;;
23175;SDS011;19910;42.652;23.332;2023-04-05T04:59:12;2.63;;;1.08;;
23175;SDS011;19910;42.652;23.332;2023-04-05T05:01:40;1.02;;;0.93;;
23175;SDS011;19910;42.652;23.332;2023-04-05T05:04:09;2.80;;;1.67;;
23175;SDS011;19910;42.652;23.332;2023-04-05T05:06:36;2.25;;;1.55;;
23175;SDS011;19910;42.652;23.332;2023-04-05T05:09:04;2.55;;;1.70;;
23175;SDS011;19910;42.652;23.332;2023-04-05T05:11:31;2.47;;;1.67;;
23175;SDS011;19910;42.652;23.332;2023-04-05T05:13:58;2.28;;;1.60;;
23175;SDS011;19910;42.652;23.332;2023-04-05T05:16:25;2.70;;;1.80;;
23175;SDS011;19910;42.652;23.332;2023-04-05T05:18:52;3.17;;;1.48;;
23175;SDS011;19910;42.652;23.332;2023-04-05T05:21:19;2.47;;;1.63;;
23175;SDS011;19910;42.652;23.332;2023-04-05T05:23:45;2.83;;;1.90;;
23175;SDS011;19910;42.652;23.332;2023-04-05T05:26:14;4.43;;;1.73;;
23175;SDS011;19910;42.652;23.332;2023-04-05T05:28:41;1.92;;;1.45;;
23175;SDS011;19910;42.652;23.332;2023-04-05T05:31:07;0.95;;;0.80;;
23175;SDS011;19910;42.652;23.332;2023-04-05T05:33:34;1.85;;;1.30;;
23175;SDS011;19910;42.652;23.332;2023-04-05T05:36:01;2.30;;;1.35;;
23175;SDS011;19910;42.652;23.332;2023-04-05T05:38:28;1.30;;;1.20;;
23175;SDS011;19910;42.652;23.332;2023-04-05T05:40:55;2.58;;;1.10;;
23175;SDS011;19910;42.652;23.332;2023-04-05T05:43:24;1.30;;;1.20;;
23175;SDS011;19910;42.652;23.332;2023-04-05T05:45:50;1.85;;;1.33;;
23175;SDS011;19910;42.652;23.332;2023-04-05T05:48:17;2.92;;;1.30;;
23175;SDS011;19910;42.652;23.332;2023-04-05T05:50:44;1.33;;;1.23;;
23175;SDS011;19910;42.652;23.332;2023-04-05T05:53:13;0.80;;;0.80;;
23175;SDS011;19910;42.652;23.332;2023-04-05T05:55:40;3.42;;;1.67;;
23175;SDS011;19910;42.652;23.332;2023-04-05T05:58:07;1.48;;;1.13;;
23175;SDS011;19910;42.652;23.332;2023-04-05T06:00:35;1.60;;;1.42;;
23175;SDS011;19910;42.652;23.332;2023-04-05T06:03:03;1.55;;;1.02;;
23175;SDS011;19910;42.652;23.332;2023-04-05T06:05:30;0.93;;;0.93;;
23175;SDS011;19910;42.652;23.332;2023-04-05T06:07:57;2.72;;;1.13;;
23175;SDS011;19910;42.652;23.332;2023-04-05T06:10:24;1.33;;;0.95;;
23175;SDS011;19910;42.652;23.332;2023-04-05T06:12:51;0.95;;;0.88;;
23175;SDS011;19910;42.652;23.332;2023-04-05T06:15:17;0.65;;;0.60;;
23175;SDS011;19910;42.652;23.332;2023-04-05T06:17:46;0.77;;;0.77;;
23175;SDS011;19910;42.652;23.332;2023-04-05T06:20:12;0.52;;;0.52;;
23175;SDS011;19910;42.652;23.332;2023-04-05T06:22:39;2.67;;;1.10;;
23175;SDS011;19910;42.652;23.332;2023-04-05T06:25:07;0.88;;;0.85;;
23175;SDS011;19910;42.652;23.332;2023-04-05T06:27:36;0.82;;;0.70;;
23175;SDS011;19910;42.652;23.332;2023-04-05T06:30:03;1.15;;;0.98;;
23175;SDS011;19910;42.652;23.332;2023-04-05T06:32:30;1.30;;;0.70;;
23175;SDS011;19910;42.652;23.332;2023-04-05T06:34:58;0.82;;;0.73;;
23175;SDS011;19910;42.652;23.332;2023-04-05T06:37:25;0.95;;;0.75;;
23175;SDS011;19910;42.652;23.332;2023-04-05T06:39:52;0.77;;;0.70;;
23175;SDS011;19910;42.652;23.332;2023-04-05T06:42:19;3.80;;;1.17;;
23175;SDS011;19910;42.652;23.332;2023-04-05T06:44:45;1.17;;;0.85;;
23175;SDS011;19910;42.652;23.332;2023-04-05T06:47:12;1.40;;;0.73;;
23175;SDS011;19910;42.652;23.332;2023-04-05T06:49:40;1.17;;;0.82;;
23175;SDS011;19910;42.652;23.332;2023-04-05T06:52:08;0.65;;;0.60;;
23175;SDS011;19910;42.652;23.332;2023-04-05T06:54:36;0.63;;;0.63;;
23175;SDS011;19910;42.652;23.332;2023-04-05T06:57:03;0.95;;;0.55;;
23175;SDS011;19910;42.652;23.332;2023-04-05T06:59:29;0.75;;;0.75;;
23175;SDS011;19910;42.652;23.332;2023-04-05T07:01:56;0.82;;;0.82;;
23175;SDS011;19910;42.652;23.332;2023-04-05T07:04:23;0.40;;;0.40;;
23175;SDS011;19910;42.652;23.332;2023-04-05T07:06:50;0.38;;;0.38;;
23175;SDS011;19910;42.652;23.332;2023-04-05T07:09:19;0.60;;;0.60;;
23175;SDS011;19910;42.652;23.332;2023-04-05T07:11:48;0.65;;;0.63;;
23175;SDS011;19910;42.652;23.332;2023-04-05T07:14:15;0.70;;;0.60;;
23175;SDS011;19910;42.652;23.332;2023-04-05T07:16:41;0.98;;;0.43;;
23175;SDS011;19910;42.652;23.332;2023-04-05T07:19:08;0.70;;;0.70;;
23175;SDS011;19910;42.652;23.332;2023-04-05T07:21:35;0.80;;;0.73;;
23175;SDS011;19910;42.652;23.332;2023-04-05T07:24:01;0.63;;;0.63;;
23175;SDS011;19910;42.652;23.332;2023-04-05T07:26:30;1.05;;;0.95;;
23175;SDS011;19910;42.652;23.332;2023-04-05T07:28:59;0.77;;;0.77;;
23175;SDS011;19910;42.652;23.332;2023-04-05T07:31:25;0.80;;;0.60;;
23175;SDS011;19910;42.652;23.332;2023-04-05T07:33:52;0.77;;;0.77;;
23175;SDS011;19910;42.652;23.332;2023-04-05T07:36:19;0.50;;;0.50;;
23175;SDS011;19910;42.652;23.332;2023-04-05T07:38:46;0.65;;;0.50;;
23175;SDS011;19910;42.652;23.332;2023-04-05T07:41:12;1.00;;;0.70;;
23175;SDS011;19910;42.652;23.332;2023-04-05T07:43:42;2.08;;;1.02;;
23175;SDS011;19910;42.652;23.332;2023-04-05T07:46:09;1.70;;;0.70;;
23175;SDS011;19910;42.652;23.332;2023-04-05T07:48:35;0.80;;;0.57;;
23175;SDS011;19910;42.652;23.332;2023-04-05T07:51:03;1.52;;;0.95;;
23175;SDS011;19910;42.652;23.332;2023-04-05T07:53:31;0.40;;;0.40;;
23175;SDS011;19910;42.652;23.332;2023-04-05T07:55:58;1.20;;;0.60;;
23175;SDS011;19910;42.652;23.332;2023-04-05T07:58:28;0.50;;;0.50;;
23175;SDS011;19910;42.652;23.332;2023-04-05T08:00:59;1.02;;;0.93;;
23175;SDS011;19910;42.652;23.332;2023-04-05T08:03:26;1.10;;;1.00;;
23175;SDS011;19910;42.652;23.332;2023-04-05T08:05:53;1.92;;;0.50;;
23175;SDS011;19910;42.652;23.332;2023-04-05T08:08:20;0.98;;;0.80;;
23175;SDS011;19910;42.652;23.332;2023-04-05T08:10:48;1.08;;;0.93;;
23175;SDS011;19910;42.652;23.332;2023-04-05T08:13:15;0.93;;;0.68;;
23175;SDS011;19910;42.652;23.332;2023-04-05T08:15:42;1.20;;;0.85;;
23175;SDS011;19910;42.652;23.332;2023-04-05T08:18:11;5.78;;;1.23;;
23175;SDS011;19910;42.652;23.332;2023-04-05T08:20:37;0.60;;;0.60;;
23175;SDS011;19910;42.652;23.332;2023-04-05T08:23:04;1.25;;;1.00;;
23175;SDS011;19910;42.652;23.332;2023-04-05T08:25:31;1.23;;;0.90;;
23175;SDS011;19910;42.652;23.332;2023-04-05T08:27:58;0.57;;;0.57;;
23175;SDS011;19910;42.652;23.332;2023-04-05T08:30:25;0.63;;;0.60;;
23175;SDS011;19910;42.652;23.332;2023-04-05T08:32:52;1.85;;;0.60;;
23175;SDS011;19910;42.652;23.332;2023-04-05T08:35:20;0.75;;;0.75;;
23175;SDS011;19910;42.652;23.332;2023-04-05T08:37:47;0.88;;;0.63;;
23175;SDS011;19910;42.652;23.332;2023-04-05T08:40:14;0.95;;;0.90;;
23175;SDS011;19910;42.652;23.332;2023-04-05T08:42:43;1.00;;;0.90;;
23175;SDS011;19910;42.652;23.332;2023-04-05T08:45:15;1.83;;;0.93;;
23175;SDS011;19910;42.652;23.332;2023-04-05T08:47:43;2.20;;;1.25;;
23175;SDS011;19910;42.652;23.332;2023-04-05T08:50:11;1.75;;;1.08;;
23175;SDS011;19910;42.652;23.332;2023-04-05T08:52:39;1.10;;;0.93;;
23175;SDS011;19910;42.652;23.332;2023-04-05T08:55:08;1.25;;;1.13;;
23175;SDS011;19910;42.652;23.332;2023-04-05T08:57:35;0.80;;;0.50;;
23175;SDS011;19910;42.652;23.332;2023-04-05T09:00:05;1.52;;;1.00;;
23175;SDS011;19910;42.652;23.332;2023-04-05T09:02:34;0.95;;;0.65;;
23175;SDS011;19910;42.652;23.332;2023-04-05T09:05:01;1.00;;;0.77;;
23175;SDS011;19910;42.652;23.332;2023-04-05T09:07:29;0.40;;;0.40;;
23175;SDS011;19910;42.652;23.332;2023-04-05T09:09:58;1.05;;;0.80;;
23175;SDS011;19910;42.652;23.332;2023-04-05T09:12:26;2.25;;;1.08;;
23175;SDS011;19910;42.652;23.332;2023-04-05T09:14:53;1.30;;;0.85;;
23175;SDS011;19910;42.652;23.332;2023-04-05T09:17:21;1.25;;;1.15;;
23175;SDS011;19910;42.652;23.332;2023-04-05T09:19:48;0.70;;;0.70;;
23175;SDS011;19910;42.652;23.332;2023-04-05T09:22:15;2.67;;;1.20;;
23175;SDS011;19910;42.652;23.332;2023-04-05T09:24:43;1.08;;;0.80;;
23175;SDS011;19910;42.652;23.332;2023-04-05T09:27:13;1.92;;;1.52;;
23175;SDS011;19910;42.652;23.332;2023-04-05T09:29:41;0.73;;;0.70;;
23175;SDS011;19910;42.652;23.332;2023-04-05T09:32:10;1.40;;;1.17;;
23175;SDS011;19910;42.652;23.332;2023-04-05T09:34:38;1.63;;;1.30;;
23175;SDS011;19910;42.652;23.332;2023-04-05T09:37:11;0.82;;;0.82;;
23175;SDS011;19910;42.652;23.332;2023-04-05T09:39:39;1.40;;;1.30;;
23175;SDS011;19910;42.652;23.332;2023-04-05T09:42:06;3.60;;;1.88;;
23175;SDS011;19910;42.652;23.332;2023-04-05T09:44:54;1.15;;;1.00;;
23175;SDS011;19910;42.652;23.332;2023-04-05T09:47:22;4.13;;;1.58;;
23175;SDS011;19910;42.652;23.332;2023-04-05T09:49:51;1.38;;;1.08;;
23175;SDS011;19910;42.652;23.332;2023-04-05T09:52:19;4.20;;;1.85;;
23175;SDS011;19910;42.652;23.332;2023-04-05T09:54:47;2.58;;;1.50;;
23175;SDS011;19910;42.652;23.332;2023-04-05T09:57:15;3.22;;;1.60;;
23175;SDS011;19910;42.652;23.332;2023-04-05T09:59:42;2.03;;;1.63;;
23175;SDS011;19910;42.652;23.332;2023-04-05T10:02:11;2.15;;;1.50;;
23175;SDS011;19910;42.652;23.332;2023-04-05T10:04:38;1.17;;;1.08;;
23175;SDS011;19910;42.652;23.332;2023-04-05T10:07:06;1.38;;;0.93;;
23175;SDS011;19910;42.652;23.332;2023-04-05T10:09:34;3.60;;;1.00;;
23175;SDS011;19910;42.652;23.332;2023-04-05T10:12:01;1.27;;;1.17;;
23175;SDS011;19910;42.652;23.332;2023-04-05T10:14:29;4.07;;;2.15;;
23175;SDS011;19910;42.652;23.332;2023-04-05T10:16:58;2.08;;;1.88;;
23175;SDS011;19910;42.652;23.332;2023-04-05T10:19:36;2.95;;;1.50;;
23175;SDS011;19910;42.652;23.332;2023-04-05T10:22:20;1.55;;;1.23;;
23175;SDS011;19910;42.652;23.332;2023-04-05T10:24:51;2.58;;;2.03;;
23175;SDS011;19910;42.652;23.332;2023-04-05T10:27:21;2.85;;;1.65;;
23175;SDS011;19910;42.652;23.332;2023-04-05T10:29:57;2.40;;;1.88;;
23175;SDS011;19910;42.652;23.332;2023-04-05T10:32:33;2.05;;;1.58;;
23175;SDS011;19910;42.652;23.332;2023-04-05T10:35:12;2.22;;;1.77;;
23175;SDS011;19910;42.652;23.332;2023-04-05T10:37:45;2.45;;;1.88;;
23175;SDS011;19910;42.652;23.332;2023-04-05T10:40:19;4.82;;;2.35;;
23175;SDS011;19910;42.652;23.332;2023-04-05T10:42:47;3.95;;;3.08;;
23175;SDS011;19910;42.652;23.332;2023-04-05T10:45:16;2.53;;;1.67;;
23175;SDS011;19910;42.652;23.332;2023-04-05T10:47:46;4.10;;;1.75;;
23175;SDS011;19910;42.652;23.332;2023-04-05T10:50:19;4.22;;;2.42;;
23175;SDS011;19910;42.652;23.332;2023-04-05T10:52:48;2.47;;;1.73;;
23175;SDS011;19910;42.652;23.332;2023-04-05T10:55:16;2.40;;;1.92;;
23175;SDS011;19910;42.652;23.332;2023-04-05T10:57:43;2.88;;;1.48;;
23175;SDS011;19910;42.652;23.332;2023-04-05T11:00:11;2.88;;;1.23;;
23175;SDS011;19910;42.652;23.332;2023-04-05T11:02:40;1.88;;;1.50;;
23175;SDS011;19910;42.652;23.332;2023-04-05T11:05:17;2.85;;;1.67;;
23175;SDS011;19910;42.652;23.332;2023-04-05T11:07:58;1.25;;;1.02;;
23175;SDS011;19910;42.652;23.332;2023-04-05T11:10:27;2.50;;;1.90;;
23175;SDS011;19910;42.652;23.332;2023-04-05T11:13:05;2.17;;;1.75;;
23175;SDS011;19910;42.652;23.332;2023-04-05T11:15:33;3.20;;;1.73;;
23175;SDS011;19910;42.652;23.332;2023-04-05T11:18:01;1.80;;;1.40;;
23175;SDS011;19910;42.652;23.332;2023-04-05T11:20:40;7.75;;;2.25;;
23175;SDS011;19910;42.652;23.332;2023-04-05T11:23:12;2.25;;;1.52;;
23175;SDS011;19910;42.652;23.332;2023-04-05T11:25:40;4.15;;;1.58;;
23175;SDS011;19910;42.652;23.332;2023-04-05T11:28:21;2.28;;;1.48;;
23175;SDS011;19910;42.652;23.332;2023-04-05T11:30:49;2.22;;;1.17;;
23175;SDS011;19910;42.652;23.332;2023-04-05T11:33:36;0.70;;;0.70;;
23175;SDS011;19910;42.652;23.332;2023-04-05T11:36:06;5.57;;;1.85;;
23175;SDS011;19910;42.652;23.332;2023-04-05T11:38:33;2.13;;;1.25;;
23175;SDS011;19910;42.652;23.332;2023-04-05T11:41:10;1.83;;;1.27;;
23175;SDS011;19910;42.652;23.332;2023-04-05T11:43:41;3.58;;;2.38;;
23175;SDS011;19910;42.652;23.332;2023-04-05T11:46:08;2.88;;;1.73;;
23175;SDS011;19910;42.652;23.332;2023-04-05T11:48:35;2.85;;;2.00;;
23175;SDS011;19910;42.652;23.332;2023-04-05T11:51:06;4.57;;;2.15;;
23175;SDS011;19910;42.652;23.332;2023-04-05T11:53:34;3.92;;;2.22;;
23175;SDS011;19910;42.652;23.332;2023-04-05T11:56:05;1.95;;;1.45;;
23175;SDS011;19910;42.652;23.332;2023-04-05T11:58:33;3.42;;;2.03;;
23175;SDS011;19910;42.652;23.332;2023-04-05T12:01:00;3.35;;;1.75;;
23175;SDS011;19910;42.652;23.332;2023-04-05T12:03:28;3.05;;;2.20;;
23175;SDS011;19910;42.652;23.332;2023-04-05T12:05:56;3.83;;;2.30;;
23175;SDS011;19910;42.652;23.332;2023-04-05T12:08:37;2.90;;;2.20;;
23175;SDS011;19910;42.652;23.332;2023-04-05T12:11:05;1.90;;;1.35;;
23175;SDS011;19910;42.652;23.332;2023-04-05T12:13:33;2.83;;;2.03;;
23175;SDS011;19910;42.652;23.332;2023-04-05T12:16:01;6.47;;;2.70;;
23175;SDS011;19910;42.652;23.332;2023-04-05T12:18:30;3.08;;;2.53;;
23175;SDS011;19910;42.652;23.332;2023-04-05T12:20:58;4.15;;;2.67;;
23175;SDS011;19910;42.652;23.332;2023-04-05T12:23:25;4.72;;;2.53;;
23175;SDS011;19910;42.652;23.332;2023-04-05T12:25:54;4.88;;;3.08;;
23175;SDS011;19910;42.652;23.332;2023-04-05T12:28:21;4.82;;;2.65;;
23175;SDS011;19910;42.652;23.332;2023-04-05T12:30:49;2.75;;;1.98;;
23175;SDS011;19910;42.652;23.332;2023-04-05T12:33:24;4.65;;;1.95;;
23175;SDS011;19910;42.652;23.332;2023-04-05T12:35:52;4.03;;;3.17;;
23175;SDS011;19910;42.652;23.332;2023-04-05T12:38:19;3.00;;;2.17;;
23175;SDS011;19910;42.652;23.332;2023-04-05T12:40:46;4.82;;;3.13;;
23175;SDS011;19910;42.652;23.332;2023-04-05T12:43:14;11.23;;;4.75;;
23175;SDS011;19910;42.652;23.332;2023-04-05T12:45:44;4.53;;;2.35;;
23175;SDS011;19910;42.652;23.332;2023-04-05T12:48:11;5.57;;;2.67;;
23175;SDS011;19910;42.652;23.332;2023-04-05T12:50:41;3.05;;;2.28;;
23175;SDS011;19910;42.652;23.332;2023-04-05T12:53:15;4.80;;;3.17;;
23175;SDS011;19910;42.652;23.332;2023-04-05T12:55:49;3.88;;;2.75;;
23175;SDS011;19910;42.652;23.332;2023-04-05T12:58:18;5.78;;;2.72;;
23175;SDS011;19910;42.652;23.332;2023-04-05T13:00:45;4.95;;;2.63;;
23175;SDS011;19910;42.652;23.332;2023-04-05T13:03:16;3.40;;;2.65;;
23175;SDS011;19910;42.652;23.332;2023-04-05T13:05:44;5.53;;;3.00;;
23175;SDS011;19910;42.652;23.332;2023-04-05T13:08:12;4.03;;;2.58;;
23175;SDS011;19910;42.652;23.332;2023-04-05T13:10:38;2.90;;;2.20;;
23175;SDS011;19910;42.652;23.332;2023-04-05T13:13:05;3.67;;;2.03;;
23175;SDS011;19910;42.652;23.332;2023-04-05T13:15:33;3.03;;;1.98;;
23175;SDS011;19910;42.652;23.332;2023-04-05T13:18:00;4.47;;;3.58;;
23175;SDS011;19910;42.652;23.332;2023-04-05T13:20:27;2.50;;;1.52;;
23175;SDS011;19910;42.652;23.332;2023-04-05T13:22:54;3.47;;;2.53;;
23175;SDS011;19910;42.652;23.332;2023-04-05T13:25:20;2.80;;;2.05;;
23175;SDS011;19910;42.652;23.332;2023-04-05T13:27:47;1.92;;;1.63;;
23175;SDS011;19910;42.652;23.332;2023-04-05T13:30:14;3.22;;;2.33;;
23175;SDS011;19910;42.652;23.332;2023-04-05T13:32:43;3.72;;;2.30;;
23175;SDS011;19910;42.652;23.332;2023-04-05T13:35:10;4.65;;;3.08;;
23175;SDS011;19910;42.652;23.332;2023-04-05T13:37:37;3.30;;;2.30;;
23175;SDS011;19910;42.652;23.332;2023-04-05T13:40:04;4.15;;;2.47;;
23175;SDS011;19910;42.652;23.332;2023-04-05T13:42:32;4.53;;;2.72;;
23175;SDS011;19910;42.652;23.332;2023-04-05T13:44:58;5.10;;;3.10;;
23175;SDS011;19910;42.652;23.332;2023-04-05T13:47:25;3.72;;;2.08;;
23175;SDS011;19910;42.652;23.332;2023-04-05T13:49:53;5.28;;;3.08;;
23175;SDS011;19910;42.652;23.332;2023-04-05T13:52:20;4.80;;;2.90;;
23175;SDS011;19910;42.652;23.332;2023-04-05T13:54:47;2.63;;;1.73;;
23175;SDS011;19910;42.652;23.332;2023-04-05T13:57:14;3.83;;;2.58;;
23175;SDS011;19910;42.652;23.332;2023-04-05T13:59:40;3.40;;;2.00;;
23175;SDS011;19910;42.652;23.332;2023-04-05T14:02:07;4.78;;;3.00;;
23175;SDS011;19910;42.652;23.332;2023-04-05T14:04:35;4.75;;;2.67;;
23175;SDS011;19910;42.652;23.332;2023-04-05T14:07:04;5.13;;;3.25;;
23175;SDS011;19910;42.652;23.332;2023-04-05T14:09:31;6.68;;;2.95;;
23175;SDS011;19910;42.652;23.332;2023-04-05T14:11:58;3.55;;;2.40;;
23175;SDS011;19910;42.652;23.332;2023-04-05T14:14:26;4.38;;;2.25;;
23175;SDS011;19910;42.652;23.332;2023-04-05T14:16:53;3.17;;;2.53;;
23175;SDS011;19910;42.652;23.332;2023-04-05T14:19:20;3.83;;;2.75;;
23175;SDS011;19910;42.652;23.332;2023-04-05T14:21:47;3.70;;;2.40;;
23175;SDS011;19910;42.652;23.332;2023-04-05T14:24:16;4.78;;;3.08;;
23175;SDS011;19910;42.652;23.332;2023-04-05T14:26:43;4.32;;;2.50;;
23175;SDS011;19910;42.652;23.332;2023-04-05T14:29:13;5.32;;;2.45;;
23175;SDS011;19910;42.652;23.332;2023-04-05T14:31:40;4.82;;;2.92;;
23175;SDS011;19910;42.652;23.332;2023-04-05T14:34:08;6.65;;;3.63;;
23175;SDS011;19910;42.652;23.332;2023-04-05T14:36:35;3.10;;;2.40;;
23175;SDS011;19910;42.652;23.332;2023-04-05T14:39:02;6.72;;;3.47;;
23175;SDS011;19910;42.652;23.332;2023-04-05T14:41:30;4.32;;;2.60;;